createdAt,value
2018-04-09T00:01:25.185Z,45.70
2018-04-09T00:03:51.440Z,46.30
2018-04-09T00:06:17.688Z,46.40
2018-04-09T00:08:45.716Z,47.10
2018-04-09T00:11:12.000Z,47.00
2018-04-09T00:13:38.342Z,46.70
2018-04-09T00:16:04.753Z,47.10
2018-04-09T00:18:31.002Z,47.20
2018-04-09T00:20:58.316Z,47.40
2018-04-09T00:23:24.551Z,48.00
2018-04-09T00:25:50.886Z,47.50
2018-04-09T00:28:17.192Z,48.00
2018-04-09T00:30:43.505Z,48.20
2018-04-09T00:33:09.922Z,48.90
2018-04-09T00:35:36.176Z,49.20
2018-04-09T00:38:02.441Z,49.50
2018-04-09T00:40:28.812Z,49.40
2018-04-09T00:42:56.506Z,49.20
2018-04-09T00:45:22.849Z,49.40
2018-04-09T00:47:49.920Z,49.90
2018-04-09T00:50:16.161Z,49.90
2018-04-09T00:52:42.401Z,50.30
2018-04-09T00:55:08.633Z,50.30
2018-04-09T00:57:35.021Z,49.90
2018-04-09T01:00:14.308Z,49.80
2018-04-09T01:02:40.642Z,50.10
2018-04-09T01:05:06.957Z,50.20
2018-04-09T01:07:33.372Z,50.40
2018-04-09T01:09:59.622Z,50.60
2018-04-09T01:12:26.590Z,51.00
2018-04-09T01:14:52.866Z,51.00
2018-04-09T01:17:19.310Z,51.10
2018-04-09T01:19:45.709Z,51.10
2018-04-09T01:22:11.941Z,51.30
2018-04-09T01:24:38.262Z,51.10
2018-04-09T01:27:04.532Z,51.00
2018-04-09T01:29:30.884Z,51.30
2018-04-09T01:31:57.477Z,51.10
2018-04-09T01:34:23.871Z,51.20
2018-04-09T01:36:50.178Z,51.10
2018-04-09T01:39:16.420Z,51.30
2018-04-09T01:41:42.678Z,51.60
2018-04-09T01:44:08.974Z,51.60
2018-04-09T01:46:35.281Z,50.90
2018-04-09T01:49:01.559Z,51.40
2018-04-09T01:51:28.029Z,51.40
2018-04-09T01:53:54.242Z,51.50
2018-04-09T01:56:23.180Z,51.50
2018-04-09T01:58:49.545Z,51.50
2018-04-09T02:01:15.819Z,51.20
2018-04-09T02:03:43.057Z,51.60
2018-04-09T02:06:09.344Z,51.20
2018-04-09T02:08:35.697Z,51.70
2018-04-09T02:11:02.028Z,51.40
2018-04-09T02:13:28.487Z,52.20
2018-04-09T02:15:54.777Z,52.10
2018-04-09T02:18:21.099Z,52.40
2018-04-09T02:20:47.332Z,52.60
2018-04-09T02:23:13.682Z,52.40
2018-04-09T02:25:40.274Z,53.50
2018-04-09T02:28:06.748Z,53.50
2018-04-09T02:30:33.302Z,53.50
2018-04-09T02:32:59.717Z,53.50
2018-04-09T02:35:26.691Z,53.40
2018-04-09T02:37:52.911Z,53.40
2018-04-09T02:40:19.203Z,53.40
2018-04-09T02:42:45.658Z,53.40
2018-04-09T02:45:11.998Z,53.30
2018-04-09T02:47:38.475Z,53.30
2018-04-09T02:50:04.746Z,53.30
2018-04-09T02:52:31.061Z,53.30
2018-04-09T02:54:57.311Z,53.40
2018-04-09T02:57:24.274Z,53.40
2018-04-09T02:59:50.507Z,53.40
2018-04-09T03:02:16.863Z,54.40
2018-04-09T03:04:43.142Z,53.40
2018-04-09T03:07:09.574Z,53.20
2018-04-09T03:09:35.830Z,53.60
2018-04-09T03:12:02.093Z,53.70
2018-04-09T03:14:28.413Z,53.40
2018-04-09T03:16:54.671Z,53.30
2018-04-09T03:19:20.977Z,53.40
2018-04-09T03:21:47.276Z,53.40
2018-04-09T03:24:13.555Z,53.40
2018-04-09T03:26:40.521Z,53.80
2018-04-09T03:29:06.864Z,53.80
2018-04-09T03:31:33.879Z,53.80
2018-04-09T03:34:00.153Z,54.00
2018-04-09T03:36:26.483Z,53.90
2018-04-09T03:38:53.465Z,53.70
2018-04-09T03:41:20.460Z,53.60
2018-04-09T03:43:46.752Z,53.50
2018-04-09T03:46:13.074Z,53.60
2018-04-09T03:48:39.560Z,53.80
2018-04-09T03:51:05.835Z,54.10
2018-04-09T03:53:32.446Z,54.10
2018-04-09T03:55:58.779Z,54.10
2018-04-09T03:58:25.058Z,54.40
2018-04-09T04:00:51.404Z,54.10
2018-04-09T04:03:17.727Z,55.10
2018-04-09T04:05:44.128Z,54.20
2018-04-09T04:08:10.404Z,54.00
2018-04-09T04:10:37.416Z,55.40
2018-04-09T04:13:04.629Z,55.70
2018-04-09T04:15:42.951Z,55.60
2018-04-09T04:18:21.495Z,55.30
2018-04-09T04:34:36.659Z,56.40
2018-04-09T04:37:03.371Z,56.80
2018-04-09T04:39:30.385Z,58.00
2018-04-09T04:41:56.646Z,57.30
2018-04-09T04:44:23.413Z,56.90
2018-04-09T04:46:49.740Z,56.80
2018-04-09T04:49:16.069Z,57.20
2018-04-09T04:51:42.281Z,57.40
2018-04-09T04:54:08.568Z,57.40
2018-04-09T04:56:34.868Z,57.10
2018-04-09T04:59:01.266Z,57.00
2018-04-09T05:01:27.509Z,57.00
2018-04-09T05:03:53.810Z,56.90
2018-04-09T05:06:20.077Z,56.70
2018-04-09T05:08:46.431Z,56.60
2018-04-09T05:11:12.741Z,56.10
2018-04-09T05:13:39.006Z,56.30
2018-04-09T05:16:05.306Z,56.20
2018-04-09T05:18:31.638Z,55.50
2018-04-09T05:20:58.540Z,55.30
2018-04-09T05:23:28.730Z,54.90
2018-04-09T05:25:56.987Z,54.30
2018-04-09T05:28:23.229Z,54.00
2018-04-09T05:30:49.836Z,54.20
2018-04-09T05:33:16.105Z,53.80
2018-04-09T05:35:44.434Z,53.50
2018-04-09T05:38:10.697Z,53.20
2018-04-09T05:40:37.007Z,53.30
2018-04-09T05:43:03.290Z,53.30
2018-04-09T05:45:29.877Z,53.40
2018-04-09T05:47:56.188Z,52.90
2018-04-09T05:50:22.637Z,52.30
2018-04-09T05:52:48.897Z,51.40
2018-04-09T05:55:15.205Z,50.80
2018-04-09T05:57:41.852Z,50.40
2018-04-09T06:00:08.172Z,50.40
2018-04-09T06:02:34.440Z,49.90
2018-04-09T06:05:01.454Z,49.80
2018-04-09T06:07:27.696Z,49.70
2018-04-09T06:09:53.954Z,49.10
2018-04-09T06:12:20.253Z,48.90
2018-04-09T06:14:46.586Z,48.20
2018-04-09T06:17:13.349Z,48.60
2018-04-09T06:19:39.987Z,49.00
2018-04-09T06:22:06.436Z,49.00
2018-04-09T06:24:32.697Z,49.00
2018-04-09T06:26:58.949Z,49.20
2018-04-09T06:29:26.225Z,49.00
2018-04-09T06:31:52.533Z,48.70
2018-04-09T06:34:18.742Z,48.90
2018-04-09T06:36:45.139Z,49.10
2018-04-09T06:39:11.402Z,48.80
2018-04-09T06:41:37.994Z,49.40
2018-04-09T06:44:04.277Z,49.00
2018-04-09T06:46:30.599Z,48.90
2018-04-09T06:48:56.963Z,48.70
2018-04-09T06:51:23.626Z,48.40
2018-04-09T06:53:49.856Z,48.70
2018-04-09T06:56:16.105Z,48.40
2018-04-09T06:58:42.365Z,48.20
2018-04-09T07:01:08.771Z,47.80
2018-04-09T07:03:35.106Z,47.70
2018-04-09T07:06:01.309Z,47.80
2018-04-09T07:08:27.662Z,47.20
2018-04-09T07:10:53.881Z,46.50
2018-04-09T07:13:20.115Z,45.40
2018-04-09T07:15:46.346Z,45.50
2018-04-09T07:18:12.589Z,45.60
2018-04-09T07:20:38.857Z,45.60
2018-04-09T07:23:05.960Z,44.90
2018-04-09T07:25:32.186Z,44.90
2018-04-09T07:27:58.432Z,44.70
2018-04-09T07:30:24.695Z,44.30
2018-04-09T07:32:51.793Z,44.30
2018-04-09T07:35:18.024Z,44.30
2018-04-09T07:37:44.281Z,43.20
2018-04-09T07:40:10.653Z,43.00
2018-04-09T07:42:37.123Z,42.70
2018-04-09T07:45:03.411Z,43.10
2018-04-09T07:47:29.684Z,42.70
2018-04-09T07:49:55.971Z,42.20
2018-04-09T07:52:22.173Z,41.80
2018-04-09T07:54:48.499Z,41.60
2018-04-09T07:57:15.456Z,40.90
2018-04-09T07:59:41.687Z,40.80
2018-04-09T08:02:08.707Z,40.80
2018-04-09T08:04:34.976Z,40.70
2018-04-09T08:07:01.237Z,40.80
2018-04-09T08:09:27.597Z,40.60
2018-04-09T08:11:53.815Z,39.70
2018-04-09T08:14:20.118Z,39.80
2018-04-09T08:16:46.492Z,39.30
2018-04-09T08:19:12.855Z,38.80
2018-04-09T08:21:39.123Z,38.40
2018-04-09T08:24:05.388Z,37.50
2018-04-09T08:26:31.698Z,37.60
2018-04-09T08:28:58.453Z,37.70
2018-04-09T08:31:25.676Z,37.20
2018-04-09T08:33:51.974Z,37.20
2018-04-09T08:36:18.398Z,37.50
2018-04-09T08:38:44.663Z,36.50
2018-04-09T08:41:11.089Z,35.20
2018-04-09T08:43:37.373Z,34.00
2018-04-09T08:46:03.836Z,33.00
2018-04-09T08:48:30.274Z,34.40
2018-04-09T08:50:56.580Z,33.10
2018-04-09T08:53:22.844Z,33.30
2018-04-09T08:55:49.084Z,33.10
2018-04-09T08:58:15.398Z,32.50
2018-04-09T09:00:41.726Z,32.60
2018-04-09T09:03:08.757Z,31.60
2018-04-09T09:05:35.225Z,31.60
2018-04-09T09:08:01.503Z,31.00
2018-04-09T09:10:27.855Z,30.30
2018-04-09T09:12:54.124Z,30.00
2018-04-09T09:15:20.389Z,30.10
2018-04-09T09:17:47.926Z,30.20
2018-04-09T09:20:14.373Z,30.00
2018-04-09T09:22:40.629Z,29.60
2018-04-09T09:25:07.041Z,29.90
2018-04-09T09:27:33.411Z,29.80
2018-04-09T09:30:00.878Z,29.80
2018-04-09T09:32:27.126Z,29.90
2018-04-09T09:34:53.427Z,29.90
2018-04-09T09:37:20.541Z,30.00
2018-04-09T09:39:46.820Z,30.00
2018-04-09T09:42:13.042Z,30.00
2018-04-09T09:44:41.453Z,30.00
2018-04-09T09:47:07.736Z,29.60
2018-04-09T09:49:34.108Z,29.40
2018-04-09T09:52:01.104Z,29.80
2018-04-09T09:54:27.620Z,29.40
2018-04-09T09:56:53.839Z,28.70
2018-04-09T09:59:20.521Z,29.00
2018-04-09T10:01:47.017Z,29.00
2018-04-09T10:04:13.504Z,28.50
2018-04-09T10:06:39.931Z,28.30
2018-04-09T10:09:06.452Z,28.00
2018-04-09T10:11:32.794Z,28.10
2018-04-09T10:13:59.368Z,27.60
2018-04-09T10:16:28.610Z,27.30
2018-04-09T10:18:55.121Z,26.60
2018-04-09T10:21:22.256Z,26.60
2018-04-09T10:23:49.744Z,26.90
2018-04-09T10:26:16.511Z,27.00
2018-04-09T10:28:45.073Z,25.50
2018-04-09T10:31:11.762Z,26.10
2018-04-09T10:33:38.131Z,25.70
2018-04-09T10:36:04.385Z,25.80
2018-04-09T10:38:30.853Z,25.70
2018-04-09T10:40:58.623Z,25.30
2018-04-09T10:43:25.246Z,25.40
2018-04-09T10:45:51.605Z,25.10
2018-04-09T10:48:17.915Z,25.30
2018-04-09T10:50:44.201Z,23.80
2018-04-09T10:53:10.500Z,24.20
2018-04-09T10:55:36.768Z,23.40
2018-04-09T10:58:03.207Z,23.90
2018-04-09T11:00:29.570Z,23.70
2018-04-09T11:02:56.789Z,23.80
2018-04-09T11:05:23.190Z,23.80
2018-04-09T11:07:50.168Z,22.60
2018-04-09T11:10:16.427Z,22.50
2018-04-09T11:12:42.741Z,23.60
2018-04-09T11:15:09.028Z,23.00
2018-04-09T11:20:08.859Z,21.90
2018-04-09T11:22:35.412Z,22.20
2018-04-09T11:25:01.853Z,22.60
2018-04-09T11:27:28.140Z,22.20
2018-04-09T11:29:55.216Z,21.70
2018-04-09T11:32:21.836Z,21.60
2018-04-09T11:34:48.191Z,21.60
2018-04-09T11:37:14.604Z,21.30
2018-04-09T11:39:40.832Z,21.90
2018-04-09T11:42:07.199Z,21.90
2018-04-09T11:44:34.259Z,21.30
2018-04-09T11:47:00.560Z,21.30
2018-04-09T11:49:27.083Z,21.60
2018-04-09T11:51:53.323Z,20.50
2018-04-09T11:54:20.328Z,20.30
2018-04-09T11:56:46.612Z,20.60
2018-04-09T11:59:14.339Z,20.30
2018-04-09T12:01:40.839Z,19.60
2018-04-09T12:04:08.572Z,19.00
2018-04-09T12:06:34.907Z,19.10
2018-04-09T12:09:01.356Z,19.80
2018-04-09T12:11:27.964Z,19.20
2018-04-09T12:13:54.655Z,19.10
2018-04-09T12:16:20.959Z,18.60
2018-04-09T12:18:47.441Z,18.80
2018-04-09T12:21:14.931Z,18.00
2018-04-09T12:23:42.964Z,18.00
2018-04-09T12:26:09.303Z,17.50
2018-04-09T12:28:35.627Z,17.60
2018-04-09T12:31:01.861Z,17.60
2018-04-09T12:33:28.191Z,17.70
2018-04-09T12:35:54.488Z,17.80
2018-04-09T12:38:20.819Z,17.70
2018-04-09T12:40:47.210Z,17.80
2018-04-09T12:43:13.829Z,17.80
2018-04-09T12:45:40.080Z,17.80
2018-04-09T12:48:06.407Z,17.70
2018-04-09T12:50:33.482Z,17.60
2018-04-09T12:52:59.819Z,17.90
2018-04-09T12:55:26.845Z,16.60
2018-04-09T12:57:53.028Z,16.60
2018-04-09T13:00:20.023Z,17.80
2018-04-09T13:02:46.259Z,17.80
2018-04-09T13:05:12.509Z,17.90
2018-04-09T13:07:38.693Z,17.80
2018-04-09T13:10:04.984Z,16.90
2018-04-09T13:12:31.266Z,17.00
2018-04-09T13:14:57.525Z,18.00
2018-04-09T13:17:24.538Z,18.00
2018-04-09T13:19:50.851Z,18.00
2018-04-09T13:22:17.835Z,16.90
2018-04-09T13:24:44.795Z,16.90
2018-04-09T13:27:11.014Z,16.30
2018-04-09T13:29:37.213Z,15.70
2018-04-09T13:32:03.459Z,16.70
2018-04-09T13:34:30.598Z,16.20
2018-04-09T13:36:56.856Z,16.20
2018-04-09T13:39:23.053Z,16.10
2018-04-09T13:41:49.306Z,16.30
2018-04-09T13:44:16.272Z,17.00
2018-04-09T13:46:42.534Z,16.80
2018-04-09T13:49:08.752Z,17.30
2018-04-09T13:51:34.990Z,17.60
2018-04-09T13:54:01.282Z,17.50
2018-04-09T13:56:27.514Z,17.40
2018-04-09T13:58:53.716Z,17.50
2018-04-09T14:01:19.948Z,18.20
2018-04-09T14:03:47.174Z,18.50
2018-04-09T14:06:13.355Z,18.10
2018-04-09T14:08:39.790Z,17.50
2018-04-09T14:11:05.971Z,17.70
2018-04-09T14:13:32.395Z,17.80
2018-04-09T14:15:58.628Z,17.70
2018-04-09T14:18:24.880Z,17.80
2018-04-09T14:20:51.131Z,17.50
2018-04-09T14:23:17.484Z,18.20
2018-04-09T14:25:43.708Z,18.30
2018-04-09T14:28:09.923Z,19.10
2018-04-09T14:30:36.146Z,18.30
2018-04-09T14:33:02.367Z,18.60
2018-04-09T14:35:28.586Z,18.60
2018-04-09T14:37:54.802Z,18.80
2018-04-09T14:40:21.048Z,18.50
2018-04-09T14:42:47.280Z,18.00
2018-04-09T14:45:13.479Z,18.00
2018-04-09T14:47:39.709Z,18.40
2018-04-09T14:50:05.935Z,18.00
2018-04-09T14:52:32.212Z,18.20
2018-04-09T14:54:59.342Z,18.10
2018-04-09T14:57:25.550Z,18.10
2018-04-09T14:59:53.860Z,17.80
2018-04-09T15:02:20.045Z,18.30
2018-04-09T15:04:46.424Z,17.60
2018-04-09T15:07:12.622Z,18.30
2018-04-09T15:09:39.580Z,18.10
2018-04-09T15:12:05.821Z,17.50
2018-04-09T15:14:32.827Z,18.30
2018-04-09T15:16:59.079Z,18.30
2018-04-09T15:19:25.319Z,18.40
2018-04-09T15:21:51.551Z,18.00
2018-04-09T15:24:17.814Z,18.30
2018-04-09T15:26:44.081Z,18.60
2018-04-09T15:29:11.307Z,18.50
2018-04-09T15:31:37.520Z,18.90
2018-04-09T15:34:03.750Z,18.40
2018-04-09T15:36:30.867Z,18.40
2018-04-09T15:38:57.046Z,18.40
2018-04-09T15:41:23.254Z,19.00
2018-04-09T15:43:49.454Z,19.20
2018-04-09T15:46:15.654Z,18.80
2018-04-09T15:48:41.850Z,18.70
2018-04-09T15:51:08.051Z,18.40
2018-04-09T15:53:34.239Z,18.60
2018-04-09T15:56:00.448Z,19.20
2018-04-09T15:58:26.673Z,18.80
2018-04-09T16:00:53.620Z,19.10
2018-04-09T16:03:19.854Z,19.00
2018-04-09T16:05:46.175Z,19.40
2018-04-09T16:08:12.424Z,19.60
2018-04-09T16:10:40.686Z,19.40
2018-04-09T16:13:06.931Z,19.20
2018-04-09T16:15:33.132Z,19.80
2018-04-09T16:18:04.173Z,20.00
2018-04-09T16:20:31.142Z,19.80
2018-04-09T16:22:58.123Z,20.40
2018-04-09T16:25:24.338Z,20.40
2018-04-09T16:27:50.542Z,20.50
2018-04-09T16:30:16.744Z,20.20
2018-04-09T16:32:42.985Z,20.50
2018-04-09T16:35:09.224Z,20.50
2018-04-09T16:37:35.478Z,20.10
2018-04-09T16:40:01.715Z,20.40
2018-04-09T16:42:28.062Z,20.60
2018-04-09T16:44:54.226Z,20.80
2018-04-09T16:47:20.530Z,21.50
2018-04-09T16:49:46.775Z,23.00
2018-04-09T16:52:13.004Z,24.20
2018-04-09T16:54:39.187Z,24.30
2018-04-09T16:57:05.350Z,24.70
2018-04-09T16:59:31.570Z,24.70
2018-04-09T17:01:57.768Z,24.70
2018-04-09T17:04:24.457Z,25.00
2018-04-09T17:06:50.744Z,24.90
2018-04-09T17:09:17.036Z,25.20
2018-04-09T17:11:43.343Z,25.40
2018-04-09T17:14:10.319Z,25.50
2018-04-09T17:16:36.538Z,25.50
2018-04-09T17:19:03.519Z,26.20
2018-04-09T17:21:29.838Z,26.20
2018-04-09T17:23:56.050Z,26.10
2018-04-09T17:26:22.355Z,26.30
2018-04-09T17:28:48.721Z,27.00
2018-04-09T17:31:14.953Z,26.70
2018-04-09T17:33:41.247Z,27.00
2018-04-09T17:36:08.243Z,27.30
2018-04-09T17:38:34.430Z,27.20
2018-04-09T17:41:01.416Z,27.70
2018-04-09T17:43:27.633Z,27.70
2018-04-09T17:45:53.836Z,27.80
2018-04-09T17:48:20.115Z,28.10
2018-04-09T17:50:47.097Z,28.70
2018-04-09T17:53:13.338Z,28.40
2018-04-09T17:55:39.590Z,28.10
2018-04-09T17:58:05.939Z,28.10
2018-04-09T18:00:32.200Z,28.30
2018-04-09T18:02:58.443Z,28.40
2018-04-09T18:05:24.658Z,28.30
2018-04-09T18:07:50.930Z,28.50
2018-04-09T18:10:17.134Z,29.10
2018-04-09T18:12:43.370Z,28.90
2018-04-09T18:15:09.611Z,29.70
2018-04-09T18:17:36.615Z,31.20
2018-04-09T18:20:02.858Z,32.00
2018-04-09T18:22:29.379Z,31.90
2018-04-09T18:24:56.658Z,31.60
2018-04-09T18:27:22.941Z,31.50
2018-04-09T18:29:49.126Z,32.20
2018-04-09T18:32:16.079Z,33.60
2018-04-09T18:34:42.409Z,33.10
2018-04-09T18:37:08.638Z,32.60
2018-04-09T18:39:35.717Z,33.40
2018-04-09T18:42:01.966Z,33.30
2018-04-09T18:44:28.197Z,33.50
2018-04-09T18:46:54.443Z,33.80
2018-04-09T18:49:20.672Z,34.10
2018-04-09T18:51:46.976Z,34.50
2018-04-09T18:54:13.246Z,34.80
2018-04-09T18:56:40.258Z,34.40
2018-04-09T18:59:06.505Z,34.50
2018-04-09T19:01:32.761Z,34.00
2018-04-09T19:03:59.055Z,33.70
2018-04-09T19:06:25.399Z,33.40
2018-04-09T19:08:51.730Z,33.40
2018-04-09T19:11:18.001Z,33.10
2018-04-09T19:13:44.375Z,33.80
2018-04-09T19:16:10.568Z,33.90
2018-04-09T19:18:36.992Z,34.40
2018-04-09T19:21:03.532Z,35.60
2018-04-09T19:23:29.856Z,35.30
2018-04-09T19:25:56.077Z,35.60
2018-04-09T19:28:22.545Z,36.00
2018-04-09T19:30:49.930Z,37.00
2018-04-09T19:33:16.282Z,36.80
2018-04-09T19:35:49.491Z,37.10
2018-04-09T19:38:21.902Z,37.10
2018-04-09T19:40:48.170Z,37.00
2018-04-09T19:43:14.474Z,36.80
2018-04-09T19:45:41.471Z,38.00
2018-04-09T19:48:07.663Z,38.00
2018-04-09T19:50:33.940Z,37.80
2018-04-09T19:53:00.202Z,37.90
2018-04-09T19:55:26.467Z,38.00
2018-04-09T19:57:52.655Z,38.00
2018-04-09T20:00:19.742Z,38.50
2018-04-09T20:02:46.026Z,38.50
2018-04-09T20:05:12.618Z,39.00
2018-04-09T20:07:38.826Z,39.00
2018-04-09T20:10:05.078Z,39.00
2018-04-09T20:12:31.285Z,39.00
2018-04-09T20:14:57.503Z,38.80
2018-04-09T20:17:23.839Z,38.80
2018-04-09T20:19:50.272Z,38.80
2018-04-09T20:22:16.507Z,39.20
2018-04-09T20:24:42.721Z,39.30
2018-04-09T20:27:09.756Z,39.40
2018-04-09T20:29:36.010Z,39.40
2018-04-09T20:32:02.334Z,38.80
2018-04-09T20:34:28.710Z,38.80
2018-04-09T20:36:55.087Z,38.80
2018-04-09T20:39:21.381Z,38.50
2018-04-09T20:41:47.611Z,38.80
2018-04-09T20:44:13.862Z,38.10
2018-04-09T20:46:40.852Z,38.10
2018-04-09T20:49:07.103Z,38.00
2018-04-09T20:51:33.454Z,38.50
2018-04-09T20:53:59.670Z,38.60
2018-04-09T20:56:26.718Z,37.70
2018-04-09T20:58:53.684Z,38.20
2018-04-09T21:01:20.778Z,37.90
2018-04-09T21:03:47.019Z,37.90
2018-04-09T21:06:13.302Z,37.80
2018-04-09T21:08:39.570Z,38.10
2018-04-09T21:11:06.555Z,38.20
2018-04-09T21:13:33.863Z,38.00
2018-04-09T21:16:00.099Z,38.70
2018-04-09T21:18:26.386Z,38.70
2018-04-09T21:20:54.726Z,38.70
2018-04-09T21:23:20.959Z,38.60
2018-04-09T21:25:47.166Z,38.60
2018-04-09T21:28:13.419Z,38.60
2018-04-09T21:30:39.611Z,38.50
2018-04-09T21:33:05.938Z,38.90
2018-04-09T21:35:32.209Z,39.10
2018-04-09T21:38:00.233Z,40.70
2018-04-09T21:40:26.484Z,40.00
2018-04-09T21:42:52.708Z,40.20
2018-04-09T21:45:20.087Z,40.40
2018-04-09T21:47:46.404Z,40.80
2018-04-09T21:50:16.786Z,41.00
2018-04-09T21:52:43.154Z,41.10
2018-04-09T21:55:09.513Z,41.90
2018-04-09T21:57:35.799Z,42.30
2018-04-09T22:00:02.237Z,42.60
2018-04-09T22:02:28.507Z,43.00
2018-04-09T22:04:54.830Z,43.10
2018-04-09T22:07:21.089Z,43.50
2018-04-09T22:09:47.289Z,43.80
2018-04-09T22:12:13.503Z,44.00
2018-04-09T22:14:39.909Z,44.20
2018-04-09T22:17:06.244Z,44.70
2018-04-09T22:19:32.502Z,45.30
2018-04-09T22:21:58.785Z,45.20
2018-04-09T22:24:25.822Z,45.80
2018-04-09T22:26:52.039Z,45.80
2018-04-09T22:29:18.368Z,46.00
2018-04-09T22:31:44.646Z,46.00
2018-04-09T22:34:10.889Z,46.50
2018-04-09T22:36:37.159Z,46.50
2018-04-09T22:39:04.161Z,46.70
2018-04-09T22:41:30.408Z,46.70
2018-04-09T22:43:56.626Z,46.90
2018-04-09T22:46:22.842Z,47.50
2018-04-09T22:48:49.907Z,47.60
2018-04-09T22:51:16.148Z,47.50
2018-04-09T22:53:43.124Z,47.50
2018-04-09T22:56:09.528Z,47.50
2018-04-09T22:58:35.791Z,47.50
2018-04-09T23:01:02.019Z,47.50
2018-04-09T23:03:28.363Z,47.50
2018-04-09T23:05:54.646Z,47.50
2018-04-09T23:08:20.889Z,47.70
2018-04-09T23:10:47.207Z,47.80
2018-04-09T23:13:13.478Z,48.10
2018-04-09T23:15:43.984Z,48.20
2018-04-09T23:18:10.198Z,48.40
2018-04-09T23:20:36.438Z,48.40
2018-04-09T23:23:02.651Z,48.40
2018-04-09T23:25:28.926Z,48.20
2018-04-09T23:27:55.259Z,48.20
2018-04-09T23:30:21.507Z,48.30
2018-04-09T23:32:47.778Z,48.40
2018-04-09T23:35:14.749Z,48.50
2018-04-09T23:37:41.737Z,48.40
2018-04-09T23:40:08.017Z,48.30
2018-04-09T23:42:34.287Z,48.70
2018-04-09T23:45:01.244Z,48.80
2018-04-09T23:47:27.438Z,48.80
2018-04-09T23:49:53.643Z,49.00
2018-04-09T23:52:19.858Z,48.80
2018-04-09T23:54:46.842Z,49.00
2018-04-09T23:57:13.129Z,49.00
2018-04-09T23:59:39.384Z,49.10
